createdAt,value
2019-02-16T18:45:33.140Z,29.83
2019-02-16T18:48:33.375Z,29.37
2019-02-16T18:51:27.682Z,36.47
2019-02-16T18:54:06.636Z,34.63
2019-02-16T18:56:43.889Z,34.13
2019-02-16T18:59:30.581Z,30.57
2019-02-16T19:02:19.287Z,22.80
2019-02-16T19:05:09.070Z,23.63
2019-02-16T19:07:52.889Z,22.17
2019-02-16T19:10:31.993Z,22.93
2019-02-16T19:13:18.272Z,21.03
2019-02-16T19:16:09.414Z,22.70
2019-02-16T19:19:01.134Z,21.43
2019-02-16T19:21:47.296Z,19.40
2019-02-16T19:24:29.419Z,19.77
2019-02-16T19:27:16.663Z,21.73
2019-02-16T19:30:04.710Z,21.57
2019-02-16T19:32:46.860Z,21.53
2019-02-16T19:35:44.475Z,20.57
2019-02-16T19:38:44.346Z,24.27
2019-02-16T19:41:27.145Z,22.00
2019-02-16T19:44:10.435Z,26.90
2019-02-16T19:46:59.616Z,27.10
2019-02-16T19:49:39.264Z,26.73
2019-02-16T19:52:22.776Z,27.70
2019-02-16T19:55:25.966Z,27.73
2019-02-16T19:58:13.182Z,59.13
2019-02-16T20:01:07.320Z,40.23
2019-02-16T20:03:49.140Z,26.23
2019-02-16T20:06:24.284Z,26.53
2019-02-16T20:09:12.976Z,27.40
2019-02-16T20:12:04.263Z,29.13
2019-02-16T20:14:55.773Z,33.00
2019-02-16T20:17:46.860Z,30.50
2019-02-16T20:20:27.376Z,28.77
2019-02-16T20:23:24.601Z,28.80
2019-02-16T20:26:15.980Z,25.57
2019-02-16T20:28:59.523Z,26.67
2019-02-16T20:31:54.023Z,28.67
2019-02-16T20:34:44.972Z,28.50
2019-02-16T20:37:33.436Z,25.00
2019-02-16T20:40:17.230Z,23.30
2019-02-16T20:43:05.791Z,23.70
2019-02-16T20:45:41.085Z,24.73
2019-02-16T20:48:47.570Z,26.17
2019-02-16T20:51:31.231Z,31.03
2019-02-16T20:54:25.637Z,32.37
2019-02-16T20:57:22.868Z,23.67
2019-02-16T21:00:29.107Z,26.77
2019-02-16T21:03:16.063Z,22.90
2019-02-16T21:06:02.355Z,26.07
2019-02-16T21:08:47.379Z,23.57
2019-02-16T21:11:35.265Z,24.53
2019-02-16T21:14:23.607Z,23.73
2019-02-16T21:17:15.015Z,20.83
2019-02-16T21:19:54.783Z,28.10
2019-02-16T21:22:33.524Z,42.80
2019-02-16T21:25:25.910Z,27.87
2019-02-16T21:28:14.279Z,24.63
2019-02-16T21:31:08.454Z,25.57
2019-02-16T21:33:45.873Z,21.47
2019-02-16T21:36:23.699Z,23.93
2019-02-16T21:39:12.075Z,21.13
2019-02-16T21:42:06.717Z,21.60
2019-02-16T21:44:53.696Z,18.20
2019-02-16T21:47:40.409Z,21.67
2019-02-16T21:50:29.293Z,19.67
2019-02-16T21:53:29.553Z,18.33
2019-02-16T21:56:10.114Z,18.63
2019-02-16T21:58:57.001Z,17.53
2019-02-16T22:01:35.391Z,18.13
2019-02-16T22:04:19.479Z,19.10
2019-02-16T22:07:06.591Z,19.70
2019-02-16T22:10:00.703Z,21.23
2019-02-16T22:12:58.319Z,18.07
2019-02-16T22:15:27.705Z,39.23
2019-02-16T22:17:57.085Z,28.87
2019-02-16T22:20:26.491Z,20.03
2019-02-16T22:22:55.868Z,17.90
2019-02-16T22:25:25.305Z,16.03
2019-02-16T22:27:54.703Z,15.80
2019-02-16T22:30:24.208Z,17.47
2019-02-16T22:32:53.631Z,14.40
2019-02-16T22:35:23.068Z,16.90
2019-02-16T22:37:52.479Z,15.70
2019-02-16T22:40:21.797Z,16.60
2019-02-16T22:42:51.260Z,18.03
2019-02-16T22:45:20.716Z,17.87
2019-02-16T22:47:50.148Z,18.37
2019-02-16T22:50:20.025Z,30.00
2019-02-16T22:52:50.272Z,19.53
2019-02-16T22:55:20.370Z,17.77
2019-02-16T22:57:50.343Z,19.03
2019-02-16T23:00:37.962Z,17.73
2019-02-16T23:03:08.727Z,18.60
2019-02-16T23:05:38.682Z,20.37
2019-02-16T23:08:08.779Z,18.30
2019-02-16T23:10:38.936Z,17.40
2019-02-16T23:13:09.201Z,18.13
2019-02-16T23:15:39.143Z,17.17
2019-02-16T23:18:09.023Z,18.20
2019-02-16T23:20:38.391Z,16.33
2019-02-16T23:23:08.202Z,17.17
2019-02-16T23:25:38.065Z,15.93
2019-02-16T23:28:07.726Z,15.93
2019-02-16T23:30:37.635Z,16.87
2019-02-16T23:33:07.053Z,16.53
2019-02-16T23:35:36.448Z,16.67
2019-02-16T23:38:05.986Z,18.47
2019-02-16T23:40:35.382Z,15.67
2019-02-16T23:43:04.778Z,15.87
2019-02-16T23:45:34.220Z,15.37
2019-02-16T23:48:03.684Z,16.73
2019-02-16T23:50:33.074Z,16.73
2019-02-16T23:53:02.447Z,15.83
2019-02-16T23:55:31.871Z,16.17
2019-02-16T23:58:01.275Z,17.50
